sensor_id;sensor_type;location;lat;lon;timestamp;P1;durP1;ratioP1;P2;durP2;ratioP2
32236;SDS011;18726;44.732;10.550;2022-07-23T00:00:36;9.75;;;8.90;;
32236;SDS011;18726;44.732;10.550;2022-07-23T00:03:40;13.18;;;10.95;;
32236;SDS011;18726;44.732;10.550;2022-07-23T00:06:44;9.63;;;8.60;;
32236;SDS011;18726;44.732;10.550;2022-07-23T00:09:47;9.02;;;8.25;;
32236;SDS011;18726;44.732;10.550;2022-07-23T00:12:51;9.52;;;8.25;;
32236;SDS011;18726;44.732;10.550;2022-07-23T00:15:55;10.77;;;9.73;;
32236;SDS011;18726;44.732;10.550;2022-07-23T00:18:58;8.57;;;7.63;;
32236;SDS011;18726;44.732;10.550;2022-07-23T00:22:04;12.32;;;11.02;;
32236;SDS011;18726;44.732;10.550;2022-07-23T00:25:08;11.77;;;10.63;;
32236;SDS011;18726;44.732;10.550;2022-07-23T00:28:11;12.20;;;10.60;;
32236;SDS011;18726;44.732;10.550;2022-07-23T00:31:15;17.75;;;10.70;;
32236;SDS011;18726;44.732;10.550;2022-07-23T00:34:19;12.07;;;9.93;;
32236;SDS011;18726;44.732;10.550;2022-07-23T00:37:23;10.95;;;9.93;;
32236;SDS011;18726;44.732;10.550;2022-07-23T00:40:27;11.05;;;10.05;;
32236;SDS011;18726;44.732;10.550;2022-07-23T00:43:31;12.00;;;10.82;;
32236;SDS011;18726;44.732;10.550;2022-07-23T00:46:35;10.73;;;9.82;;
32236;SDS011;18726;44.732;10.550;2022-07-23T00:49:38;13.63;;;11.55;;
32236;SDS011;18726;44.732;10.550;2022-07-23T00:52:42;14.55;;;10.43;;
32236;SDS011;18726;44.732;10.550;2022-07-23T00:55:45;13.32;;;10.13;;
32236;SDS011;18726;44.732;10.550;2022-07-23T00:58:51;11.07;;;10.05;;
32236;SDS011;18726;44.732;10.550;2022-07-23T01:01:54;10.82;;;9.82;;
32236;SDS011;18726;44.732;10.550;2022-07-23T01:04:58;10.45;;;9.45;;
32236;SDS011;18726;44.732;10.550;2022-07-23T01:08:02;10.43;;;9.32;;
32236;SDS011;18726;44.732;10.550;2022-07-23T01:11:07;11.00;;;9.60;;
32236;SDS011;18726;44.732;10.550;2022-07-23T01:14:12;9.77;;;8.75;;
32236;SDS011;18726;44.732;10.550;2022-07-23T01:17:18;15.10;;;8.80;;
32236;SDS011;18726;44.732;10.550;2022-07-23T01:20:22;12.30;;;9.80;;
32236;SDS011;18726;44.732;10.550;2022-07-23T01:23:26;11.88;;;9.20;;
32236;SDS011;18726;44.732;10.550;2022-07-23T01:26:33;12.38;;;8.77;;
32236;SDS011;18726;44.732;10.550;2022-07-23T01:29:37;9.80;;;8.70;;
32236;SDS011;18726;44.732;10.550;2022-07-23T01:32:46;11.57;;;9.25;;
32236;SDS011;18726;44.732;10.550;2022-07-23T01:35:49;14.45;;;9.65;;
32236;SDS011;18726;44.732;10.550;2022-07-23T01:38:58;9.85;;;8.90;;
32236;SDS011;18726;44.732;10.550;2022-07-23T01:42:02;10.18;;;9.00;;
32236;SDS011;18726;44.732;10.550;2022-07-23T01:45:06;15.05;;;9.95;;
32236;SDS011;18726;44.732;10.550;2022-07-23T01:48:11;11.85;;;10.70;;
32236;SDS011;18726;44.732;10.550;2022-07-23T01:51:21;11.90;;;10.73;;
32236;SDS011;18726;44.732;10.550;2022-07-23T01:54:34;11.68;;;10.57;;
32236;SDS011;18726;44.732;10.550;2022-07-23T01:57:39;10.50;;;9.50;;
32236;SDS011;18726;44.732;10.550;2022-07-23T02:00:44;13.60;;;9.90;;
32236;SDS011;18726;44.732;10.550;2022-07-23T02:03:47;12.48;;;9.05;;
32236;SDS011;18726;44.732;10.550;2022-07-23T02:06:51;13.48;;;9.50;;
32236;SDS011;18726;44.732;10.550;2022-07-23T02:09:56;9.73;;;8.93;;
32236;SDS011;18726;44.732;10.550;2022-07-23T02:12:59;16.30;;;9.00;;
32236;SDS011;18726;44.732;10.550;2022-07-23T02:16:02;12.13;;;9.32;;
32236;SDS011;18726;44.732;10.550;2022-07-23T02:19:06;10.73;;;9.73;;
32236;SDS011;18726;44.732;10.550;2022-07-23T02:22:10;9.30;;;8.40;;
32236;SDS011;18726;44.732;10.550;2022-07-23T02:25:14;12.77;;;10.45;;
32236;SDS011;18726;44.732;10.550;2022-07-23T02:28:17;16.15;;;10.13;;
32236;SDS011;18726;44.732;10.550;2022-07-23T02:31:21;10.50;;;9.40;;
32236;SDS011;18726;44.732;10.550;2022-07-23T02:34:25;10.43;;;8.02;;
32236;SDS011;18726;44.732;10.550;2022-07-23T02:37:29;10.85;;;8.93;;
32236;SDS011;18726;44.732;10.550;2022-07-23T02:40:33;10.05;;;9.05;;
32236;SDS011;18726;44.732;10.550;2022-07-23T02:43:37;15.45;;;9.93;;
32236;SDS011;18726;44.732;10.550;2022-07-23T02:46:40;9.93;;;9.02;;
32236;SDS011;18726;44.732;10.550;2022-07-23T02:49:44;7.95;;;7.25;;
32236;SDS011;18726;44.732;10.550;2022-07-23T02:52:48;18.45;;;10.55;;
32236;SDS011;18726;44.732;10.550;2022-07-23T02:55:52;14.48;;;8.85;;
32236;SDS011;18726;44.732;10.550;2022-07-23T02:58:56;16.40;;;10.73;;
32236;SDS011;18726;44.732;10.550;2022-07-23T03:01:59;13.10;;;11.70;;
32236;SDS011;18726;44.732;10.550;2022-07-23T03:05:05;16.08;;;14.02;;
32236;SDS011;18726;44.732;10.550;2022-07-23T03:08:11;13.75;;;11.95;;
32236;SDS011;18726;44.732;10.550;2022-07-23T03:11:17;13.20;;;10.82;;
32236;SDS011;18726;44.732;10.550;2022-07-23T03:14:21;15.63;;;11.88;;
32236;SDS011;18726;44.732;10.550;2022-07-23T03:17:24;12.40;;;10.98;;
32236;SDS011;18726;44.732;10.550;2022-07-23T03:20:28;12.65;;;11.02;;
32236;SDS011;18726;44.732;10.550;2022-07-23T03:23:32;11.85;;;10.65;;
32236;SDS011;18726;44.732;10.550;2022-07-23T03:26:36;11.20;;;10.10;;
32236;SDS011;18726;44.732;10.550;2022-07-23T03:29:40;11.23;;;10.13;;
32236;SDS011;18726;44.732;10.550;2022-07-23T03:32:43;11.25;;;9.35;;
32236;SDS011;18726;44.732;10.550;2022-07-23T03:35:48;10.82;;;9.82;;
32236;SDS011;18726;44.732;10.550;2022-07-23T03:38:59;10.35;;;9.20;;
32236;SDS011;18726;44.732;10.550;2022-07-23T03:42:03;18.63;;;10.02;;
32236;SDS011;18726;44.732;10.550;2022-07-23T03:45:07;10.60;;;9.50;;
32236;SDS011;18726;44.732;10.550;2022-07-23T03:48:11;12.15;;;9.18;;
32236;SDS011;18726;44.732;10.550;2022-07-23T03:51:15;10.80;;;9.70;;
32236;SDS011;18726;44.732;10.550;2022-07-23T03:54:18;11.30;;;10.18;;
32236;SDS011;18726;44.732;10.550;2022-07-23T03:57:23;15.52;;;13.70;;
32236;SDS011;18726;44.732;10.550;2022-07-23T04:00:27;21.48;;;19.17;;
32236;SDS011;18726;44.732;10.550;2022-07-23T04:03:31;16.95;;;15.27;;
32236;SDS011;18726;44.732;10.550;2022-07-23T04:06:34;15.50;;;10.82;;
32236;SDS011;18726;44.732;10.550;2022-07-23T04:09:39;10.65;;;9.65;;
32236;SDS011;18726;44.732;10.550;2022-07-23T04:12:45;20.83;;;12.40;;
32236;SDS011;18726;44.732;10.550;2022-07-23T04:15:48;14.75;;;9.82;;
32236;SDS011;18726;44.732;10.550;2022-07-23T04:18:53;12.52;;;9.75;;
32236;SDS011;18726;44.732;10.550;2022-07-23T04:21:59;12.82;;;8.18;;
32236;SDS011;18726;44.732;10.550;2022-07-23T04:25:03;8.50;;;7.70;;
32236;SDS011;18726;44.732;10.550;2022-07-23T04:28:07;9.07;;;8.13;;
32236;SDS011;18726;44.732;10.550;2022-07-23T04:31:11;12.88;;;8.80;;
32236;SDS011;18726;44.732;10.550;2022-07-23T04:34:16;15.52;;;8.68;;
32236;SDS011;18726;44.732;10.550;2022-07-23T04:37:20;16.42;;;8.50;;
32236;SDS011;18726;44.732;10.550;2022-07-23T04:40:23;12.45;;;8.55;;
32236;SDS011;18726;44.732;10.550;2022-07-23T04:43:27;12.07;;;8.40;;
32236;SDS011;18726;44.732;10.550;2022-07-23T04:46:31;12.48;;;8.65;;
32236;SDS011;18726;44.732;10.550;2022-07-23T04:49:35;14.07;;;8.45;;
32236;SDS011;18726;44.732;10.550;2022-07-23T04:52:39;10.35;;;8.05;;
32236;SDS011;18726;44.732;10.550;2022-07-23T04:55:42;11.30;;;7.47;;
32236;SDS011;18726;44.732;10.550;2022-07-23T04:58:46;10.82;;;7.32;;
32236;SDS011;18726;44.732;10.550;2022-07-23T05:01:50;9.43;;;8.00;;
32236;SDS011;18726;44.732;10.550;2022-07-23T05:04:55;11.07;;;7.13;;
32236;SDS011;18726;44.732;10.550;2022-07-23T05:07:58;11.55;;;8.48;;
32236;SDS011;18726;44.732;10.550;2022-07-23T05:11:02;8.93;;;6.95;;
32236;SDS011;18726;44.732;10.550;2022-07-23T05:14:06;9.80;;;6.60;;
32236;SDS011;18726;44.732;10.550;2022-07-23T05:17:10;8.13;;;6.50;;
32236;SDS011;18726;44.732;10.550;2022-07-23T05:20:14;7.18;;;6.45;;
32236;SDS011;18726;44.732;10.550;2022-07-23T05:23:18;8.57;;;6.35;;
32236;SDS011;18726;44.732;10.550;2022-07-23T05:26:22;9.88;;;6.53;;
32236;SDS011;18726;44.732;10.550;2022-07-23T05:29:26;8.55;;;5.65;;
32236;SDS011;18726;44.732;10.550;2022-07-23T05:32:33;8.50;;;7.53;;
32236;SDS011;18726;44.732;10.550;2022-07-23T05:35:47;17.08;;;8.73;;
32236;SDS011;18726;44.732;10.550;2022-07-23T05:39:06;10.65;;;6.40;;
32236;SDS011;18726;44.732;10.550;2022-07-23T05:42:13;7.85;;;6.82;;
32236;SDS011;18726;44.732;10.550;2022-07-23T05:45:17;14.10;;;8.02;;
32236;SDS011;18726;44.732;10.550;2022-07-23T05:48:22;9.38;;;7.15;;
32236;SDS011;18726;44.732;10.550;2022-07-23T05:51:49;8.32;;;6.65;;
32236;SDS011;18726;44.732;10.550;2022-07-23T05:54:58;10.35;;;7.50;;
32236;SDS011;18726;44.732;10.550;2022-07-23T05:58:02;16.38;;;9.20;;
32236;SDS011;18726;44.732;10.550;2022-07-23T06:01:08;17.30;;;13.45;;
32236;SDS011;18726;44.732;10.550;2022-07-23T06:04:20;12.90;;;10.75;;
32236;SDS011;18726;44.732;10.550;2022-07-23T06:07:38;14.73;;;9.13;;
32236;SDS011;18726;44.732;10.550;2022-07-23T06:10:42;11.52;;;9.02;;
32236;SDS011;18726;44.732;10.550;2022-07-23T06:13:46;14.40;;;10.13;;
32236;SDS011;18726;44.732;10.550;2022-07-23T06:16:50;17.60;;;10.80;;
32236;SDS011;18726;44.732;10.550;2022-07-23T06:19:54;16.60;;;10.27;;
32236;SDS011;18726;44.732;10.550;2022-07-23T06:22:58;9.65;;;8.48;;
32236;SDS011;18726;44.732;10.550;2022-07-23T06:26:02;11.77;;;8.70;;
32236;SDS011;18726;44.732;10.550;2022-07-23T06:29:06;11.30;;;8.98;;
32236;SDS011;18726;44.732;10.550;2022-07-23T06:32:09;11.38;;;9.07;;
32236;SDS011;18726;44.732;10.550;2022-07-23T06:35:14;8.63;;;7.45;;
32236;SDS011;18726;44.732;10.550;2022-07-23T06:38:18;11.15;;;8.20;;
32236;SDS011;18726;44.732;10.550;2022-07-23T06:41:21;9.50;;;6.88;;
32236;SDS011;18726;44.732;10.550;2022-07-23T06:44:28;11.07;;;7.05;;
32236;SDS011;18726;44.732;10.550;2022-07-23T06:47:32;8.35;;;6.82;;
32236;SDS011;18726;44.732;10.550;2022-07-23T06:50:35;8.45;;;5.97;;
32236;SDS011;18726;44.732;10.550;2022-07-23T06:53:39;7.18;;;6.50;;
32236;SDS011;18726;44.732;10.550;2022-07-23T06:56:46;8.18;;;7.20;;
32236;SDS011;18726;44.732;10.550;2022-07-23T06:59:50;8.90;;;6.03;;
32236;SDS011;18726;44.732;10.550;2022-07-23T07:02:53;6.57;;;5.63;;
32236;SDS011;18726;44.732;10.550;2022-07-23T07:05:58;5.70;;;5.20;;
32236;SDS011;18726;44.732;10.550;2022-07-23T07:09:02;5.70;;;5.13;;
32236;SDS011;18726;44.732;10.550;2022-07-23T07:12:05;5.53;;;4.97;;
32236;SDS011;18726;44.732;10.550;2022-07-23T07:15:09;8.38;;;5.47;;
32236;SDS011;18726;44.732;10.550;2022-07-23T07:18:13;9.00;;;4.88;;
32236;SDS011;18726;44.732;10.550;2022-07-23T07:21:17;6.97;;;5.38;;
32236;SDS011;18726;44.732;10.550;2022-07-23T07:24:20;5.75;;;4.80;;
32236;SDS011;18726;44.732;10.550;2022-07-23T07:27:24;21.15;;;13.30;;
32236;SDS011;18726;44.732;10.550;2022-07-23T07:30:27;5.38;;;4.88;;
32236;SDS011;18726;44.732;10.550;2022-07-23T07:33:30;8.48;;;4.47;;
32236;SDS011;18726;44.732;10.550;2022-07-23T07:36:34;8.80;;;4.88;;
32236;SDS011;18726;44.732;10.550;2022-07-23T07:39:40;7.55;;;4.60;;
32236;SDS011;18726;44.732;10.550;2022-07-23T07:42:44;5.30;;;4.68;;
32236;SDS011;18726;44.732;10.550;2022-07-23T07:45:48;5.63;;;4.63;;
32236;SDS011;18726;44.732;10.550;2022-07-23T07:48:52;6.28;;;4.63;;
32236;SDS011;18726;44.732;10.550;2022-07-23T07:51:55;8.93;;;4.38;;
32236;SDS011;18726;44.732;10.550;2022-07-23T07:54:59;5.65;;;4.85;;
32236;SDS011;18726;44.732;10.550;2022-07-23T07:58:02;5.95;;;3.85;;
32236;SDS011;18726;44.732;10.550;2022-07-23T08:01:06;5.78;;;4.47;;
32236;SDS011;18726;44.732;10.550;2022-07-23T08:04:10;9.05;;;4.93;;
32236;SDS011;18726;44.732;10.550;2022-07-23T08:07:14;9.15;;;4.60;;
32236;SDS011;18726;44.732;10.550;2022-07-23T08:10:18;5.82;;;5.32;;
32236;SDS011;18726;44.732;10.550;2022-07-23T08:13:22;7.60;;;5.80;;
32236;SDS011;18726;44.732;10.550;2022-07-23T08:16:26;8.35;;;6.22;;
32236;SDS011;18726;44.732;10.550;2022-07-23T08:19:29;11.45;;;6.82;;
32236;SDS011;18726;44.732;10.550;2022-07-23T08:22:43;6.04;;;5.44;;
32236;SDS011;18726;44.732;10.550;2022-07-23T08:25:52;6.88;;;5.68;;
32236;SDS011;18726;44.732;10.550;2022-07-23T08:28:56;9.77;;;6.40;;
32236;SDS011;18726;44.732;10.550;2022-07-23T08:31:59;9.85;;;6.47;;
32236;SDS011;18726;44.732;10.550;2022-07-23T08:35:03;9.65;;;6.63;;
32236;SDS011;18726;44.732;10.550;2022-07-23T08:38:08;7.97;;;7.20;;
32236;SDS011;18726;44.732;10.550;2022-07-23T08:41:14;8.40;;;6.15;;
32236;SDS011;18726;44.732;10.550;2022-07-23T08:44:18;7.10;;;6.38;;
32236;SDS011;18726;44.732;10.550;2022-07-23T08:47:21;7.68;;;6.88;;
32236;SDS011;18726;44.732;10.550;2022-07-23T08:50:25;8.90;;;7.22;;
32236;SDS011;18726;44.732;10.550;2022-07-23T08:53:29;9.90;;;7.47;;
32236;SDS011;18726;44.732;10.550;2022-07-23T08:56:34;7.68;;;6.75;;
32236;SDS011;18726;44.732;10.550;2022-07-23T08:59:38;7.57;;;6.88;;
32236;SDS011;18726;44.732;10.550;2022-07-23T09:02:42;8.23;;;7.15;;
32236;SDS011;18726;44.732;10.550;2022-07-23T09:05:48;10.40;;;6.85;;
32236;SDS011;18726;44.732;10.550;2022-07-23T09:08:53;9.48;;;7.75;;
32236;SDS011;18726;44.732;10.550;2022-07-23T09:12:06;13.50;;;8.35;;
32236;SDS011;18726;44.732;10.550;2022-07-23T09:15:12;8.50;;;7.72;;
32236;SDS011;18726;44.732;10.550;2022-07-23T09:18:16;9.23;;;8.23;;
32236;SDS011;18726;44.732;10.550;2022-07-23T09:24:26;9.20;;;8.13;;
32236;SDS011;18726;44.732;10.550;2022-07-23T09:30:59;8.52;;;7.57;;
32236;SDS011;18726;44.732;10.550;2022-07-23T09:34:09;8.90;;;8.00;;
32236;SDS011;18726;44.732;10.550;2022-07-23T09:37:15;10.50;;;8.02;;
32236;SDS011;18726;44.732;10.550;2022-07-23T09:40:22;9.63;;;6.68;;
32236;SDS011;18726;44.732;10.550;2022-07-23T09:43:26;10.07;;;7.80;;
32236;SDS011;18726;44.732;10.550;2022-07-23T09:46:33;11.70;;;6.72;;
32236;SDS011;18726;44.732;10.550;2022-07-23T09:49:37;9.43;;;7.80;;
32236;SDS011;18726;44.732;10.550;2022-07-23T09:52:45;8.65;;;7.75;;
32236;SDS011;18726;44.732;10.550;2022-07-23T09:55:51;8.95;;;7.68;;
32236;SDS011;18726;44.732;10.550;2022-07-23T09:59:01;11.63;;;7.80;;
32236;SDS011;18726;44.732;10.550;2022-07-23T10:02:15;7.78;;;7.07;;
32236;SDS011;18726;44.732;10.550;2022-07-23T10:05:42;7.45;;;6.57;;
32236;SDS011;18726;44.732;10.550;2022-07-23T10:09:23;8.05;;;7.32;;
32236;SDS011;18726;44.732;10.550;2022-07-23T10:12:59;9.10;;;8.10;;
32236;SDS011;18726;44.732;10.550;2022-07-23T10:16:38;10.20;;;7.53;;
32236;SDS011;18726;44.732;10.550;2022-07-23T10:19:43;8.05;;;6.75;;
32236;SDS011;18726;44.732;10.550;2022-07-23T10:22:48;10.43;;;7.15;;
32236;SDS011;18726;44.732;10.550;2022-07-23T10:35:47;11.90;;;7.80;;
32236;SDS011;18726;44.732;10.550;2022-07-23T10:39:05;7.93;;;7.22;;
32236;SDS011;18726;44.732;10.550;2022-07-23T10:42:17;8.98;;;7.25;;
32236;SDS011;18726;44.732;10.550;2022-07-23T10:48:26;11.32;;;7.30;;
32236;SDS011;18726;44.732;10.550;2022-07-23T10:51:29;9.10;;;8.20;;
32236;SDS011;18726;44.732;10.550;2022-07-23T10:54:33;9.05;;;7.25;;
32236;SDS011;18726;44.732;10.550;2022-07-23T10:57:47;8.80;;;7.50;;
32236;SDS011;18726;44.732;10.550;2022-07-23T11:00:52;8.65;;;7.72;;
32236;SDS011;18726;44.732;10.550;2022-07-23T11:03:56;9.68;;;7.60;;
32236;SDS011;18726;44.732;10.550;2022-07-23T11:10:05;9.65;;;8.38;;
32236;SDS011;18726;44.732;10.550;2022-07-23T11:16:25;8.30;;;7.43;;
32236;SDS011;18726;44.732;10.550;2022-07-23T11:19:28;9.20;;;8.27;;
32236;SDS011;18726;44.732;10.550;2022-07-23T11:22:39;8.07;;;7.28;;
32236;SDS011;18726;44.732;10.550;2022-07-23T11:25:50;9.05;;;7.55;;
32236;SDS011;18726;44.732;10.550;2022-07-23T11:28:53;13.05;;;7.53;;
32236;SDS011;18726;44.732;10.550;2022-07-23T11:31:58;12.30;;;8.48;;
32236;SDS011;18726;44.732;10.550;2022-07-23T11:38:31;12.77;;;8.07;;
32236;SDS011;18726;44.732;10.550;2022-07-23T11:41:44;9.30;;;7.63;;
32236;SDS011;18726;44.732;10.550;2022-07-23T11:44:49;9.02;;;7.88;;
32236;SDS011;18726;44.732;10.550;2022-07-23T11:47:53;9.80;;;8.85;;
32236;SDS011;18726;44.732;10.550;2022-07-23T11:50:57;9.68;;;8.73;;
32236;SDS011;18726;44.732;10.550;2022-07-23T11:54:05;9.40;;;7.82;;
32236;SDS011;18726;44.732;10.550;2022-07-23T11:57:09;10.20;;;9.15;;
32236;SDS011;18726;44.732;10.550;2022-07-23T12:00:15;9.25;;;8.05;;
32236;SDS011;18726;44.732;10.550;2022-07-23T12:03:20;10.45;;;8.85;;
32236;SDS011;18726;44.732;10.550;2022-07-23T12:06:24;12.07;;;8.65;;
32236;SDS011;18726;44.732;10.550;2022-07-23T12:09:28;10.88;;;8.85;;
32236;SDS011;18726;44.732;10.550;2022-07-23T12:12:51;9.68;;;8.25;;
32236;SDS011;18726;44.732;10.550;2022-07-23T12:16:00;10.48;;;8.15;;
32236;SDS011;18726;44.732;10.550;2022-07-23T12:19:03;9.50;;;8.05;;
32236;SDS011;18726;44.732;10.550;2022-07-23T12:22:07;9.00;;;7.80;;
32236;SDS011;18726;44.732;10.550;2022-07-23T12:25:12;9.85;;;8.07;;
32236;SDS011;18726;44.732;10.550;2022-07-23T12:28:22;10.60;;;8.75;;
32236;SDS011;18726;44.732;10.550;2022-07-23T12:31:31;13.32;;;8.70;;
32236;SDS011;18726;44.732;10.550;2022-07-23T12:34:35;9.77;;;7.85;;
32236;SDS011;18726;44.732;10.550;2022-07-23T12:37:40;10.32;;;8.05;;
32236;SDS011;18726;44.732;10.550;2022-07-23T12:40:48;9.73;;;8.55;;
32236;SDS011;18726;44.732;10.550;2022-07-23T12:43:51;9.27;;;8.25;;
32236;SDS011;18726;44.732;10.550;2022-07-23T12:46:55;10.75;;;9.68;;
32236;SDS011;18726;44.732;10.550;2022-07-23T12:49:58;9.98;;;8.27;;
32236;SDS011;18726;44.732;10.550;2022-07-23T12:53:05;8.75;;;7.78;;
32236;SDS011;18726;44.732;10.550;2022-07-23T12:56:15;8.85;;;7.75;;
32236;SDS011;18726;44.732;10.550;2022-07-23T12:59:22;12.38;;;8.82;;
32236;SDS011;18726;44.732;10.550;2022-07-23T13:02:26;10.40;;;7.72;;
32236;SDS011;18726;44.732;10.550;2022-07-23T13:05:29;8.85;;;7.63;;
32236;SDS011;18726;44.732;10.550;2022-07-23T13:08:33;10.77;;;7.68;;
32236;SDS011;18726;44.732;10.550;2022-07-23T13:11:38;10.77;;;8.18;;
32236;SDS011;18726;44.732;10.550;2022-07-23T13:14:42;12.38;;;7.53;;
32236;SDS011;18726;44.732;10.550;2022-07-23T13:17:45;8.45;;;7.55;;
32236;SDS011;18726;44.732;10.550;2022-07-23T13:20:51;10.10;;;8.10;;
32236;SDS011;18726;44.732;10.550;2022-07-23T13:23:55;9.60;;;8.70;;
32236;SDS011;18726;44.732;10.550;2022-07-23T13:26:59;9.45;;;8.50;;
32236;SDS011;18726;44.732;10.550;2022-07-23T13:30:03;8.25;;;7.45;;
32236;SDS011;18726;44.732;10.550;2022-07-23T13:33:07;8.75;;;7.95;;
32236;SDS011;18726;44.732;10.550;2022-07-23T13:36:12;7.75;;;7.00;;
32236;SDS011;18726;44.732;10.550;2022-07-23T13:39:15;9.02;;;7.32;;
32236;SDS011;18726;44.732;10.550;2022-07-23T13:42:19;9.18;;;8.38;;
32236;SDS011;18726;44.732;10.550;2022-07-23T13:45:23;9.43;;;7.45;;
32236;SDS011;18726;44.732;10.550;2022-07-23T13:48:27;10.55;;;8.23;;
32236;SDS011;18726;44.732;10.550;2022-07-23T13:51:32;8.32;;;6.90;;
32236;SDS011;18726;44.732;10.550;2022-07-23T13:54:36;8.82;;;7.93;;
32236;SDS011;18726;44.732;10.550;2022-07-23T13:57:41;10.70;;;7.90;;
32236;SDS011;18726;44.732;10.550;2022-07-23T14:00:45;7.57;;;6.72;;
32236;SDS011;18726;44.732;10.550;2022-07-23T14:03:51;8.15;;;7.35;;
32236;SDS011;18726;44.732;10.550;2022-07-23T14:06:56;10.90;;;7.13;;
32236;SDS011;18726;44.732;10.550;2022-07-23T14:10:01;9.07;;;8.20;;
32236;SDS011;18726;44.732;10.550;2022-07-23T14:13:06;8.85;;;7.38;;
32236;SDS011;18726;44.732;10.550;2022-07-23T14:16:09;11.35;;;7.63;;
32236;SDS011;18726;44.732;10.550;2022-07-23T14:19:13;10.40;;;8.38;;
32236;SDS011;18726;44.732;10.550;2022-07-23T14:22:17;12.43;;;8.52;;
32236;SDS011;18726;44.732;10.550;2022-07-23T14:25:21;9.07;;;8.18;;
32236;SDS011;18726;44.732;10.550;2022-07-23T14:28:25;9.13;;;8.27;;
32236;SDS011;18726;44.732;10.550;2022-07-23T14:31:29;8.82;;;7.93;;
32236;SDS011;18726;44.732;10.550;2022-07-23T14:34:33;10.05;;;9.05;;
32236;SDS011;18726;44.732;10.550;2022-07-23T14:37:38;11.77;;;9.07;;
32236;SDS011;18726;44.732;10.550;2022-07-23T14:40:42;10.73;;;9.50;;
32236;SDS011;18726;44.732;10.550;2022-07-23T14:43:47;9.82;;;8.82;;
32236;SDS011;18726;44.732;10.550;2022-07-23T14:46:50;10.20;;;8.80;;
32236;SDS011;18726;44.732;10.550;2022-07-23T14:49:54;10.13;;;9.23;;
32236;SDS011;18726;44.732;10.550;2022-07-23T14:52:58;10.88;;;8.63;;
32236;SDS011;18726;44.732;10.550;2022-07-23T14:56:01;11.25;;;9.52;;
32236;SDS011;18726;44.732;10.550;2022-07-23T14:59:06;11.60;;;9.25;;
32236;SDS011;18726;44.732;10.550;2022-07-23T15:02:10;10.98;;;8.57;;
32236;SDS011;18726;44.732;10.550;2022-07-23T15:05:14;13.10;;;8.82;;
32236;SDS011;18726;44.732;10.550;2022-07-23T15:08:18;9.52;;;8.63;;
32236;SDS011;18726;44.732;10.550;2022-07-23T15:11:21;9.60;;;8.15;;
32236;SDS011;18726;44.732;10.550;2022-07-23T15:14:26;13.10;;;9.55;;
32236;SDS011;18726;44.732;10.550;2022-07-23T15:17:29;16.40;;;9.80;;
32236;SDS011;18726;44.732;10.550;2022-07-23T15:20:33;9.25;;;8.35;;
32236;SDS011;18726;44.732;10.550;2022-07-23T15:23:37;10.07;;;9.07;;
32236;SDS011;18726;44.732;10.550;2022-07-23T15:26:42;10.43;;;8.50;;
32236;SDS011;18726;44.732;10.550;2022-07-23T15:29:46;9.98;;;8.82;;
32236;SDS011;18726;44.732;10.550;2022-07-23T15:32:50;11.15;;;9.60;;
32236;SDS011;18726;44.732;10.550;2022-07-23T15:35:54;9.85;;;9.02;;
32236;SDS011;18726;44.732;10.550;2022-07-23T15:39:02;11.43;;;9.43;;
32236;SDS011;18726;44.732;10.550;2022-07-23T15:42:06;9.63;;;8.73;;
32236;SDS011;18726;44.732;10.550;2022-07-23T15:45:10;12.23;;;9.98;;
32236;SDS011;18726;44.732;10.550;2022-07-23T15:48:14;10.68;;;9.60;;
32236;SDS011;18726;44.732;10.550;2022-07-23T15:51:18;17.40;;;9.10;;
32236;SDS011;18726;44.732;10.550;2022-07-23T15:54:22;9.63;;;8.73;;
32236;SDS011;18726;44.732;10.550;2022-07-23T15:57:26;11.23;;;9.63;;
32236;SDS011;18726;44.732;10.550;2022-07-23T16:00:30;10.82;;;9.73;;
32236;SDS011;18726;44.732;10.550;2022-07-23T16:03:34;10.20;;;9.20;;
32236;SDS011;18726;44.732;10.550;2022-07-23T16:06:38;10.63;;;9.18;;
32236;SDS011;18726;44.732;10.550;2022-07-23T16:09:44;11.70;;;8.77;;
32236;SDS011;18726;44.732;10.550;2022-07-23T16:12:48;13.57;;;9.48;;
32236;SDS011;18726;44.732;10.550;2022-07-23T16:15:52;11.70;;;9.95;;
32236;SDS011;18726;44.732;10.550;2022-07-23T16:18:59;10.10;;;8.70;;
32236;SDS011;18726;44.732;10.550;2022-07-23T16:22:03;9.43;;;6.50;;
32236;SDS011;18726;44.732;10.550;2022-07-23T16:25:07;6.03;;;5.20;;
32236;SDS011;18726;44.732;10.550;2022-07-23T16:28:12;9.20;;;4.93;;
32236;SDS011;18726;44.732;10.550;2022-07-23T16:31:15;6.70;;;5.15;;
32236;SDS011;18726;44.732;10.550;2022-07-23T16:34:19;8.80;;;4.35;;
32236;SDS011;18726;44.732;10.550;2022-07-23T16:37:22;7.95;;;4.95;;
32236;SDS011;18726;44.732;10.550;2022-07-23T16:40:27;5.38;;;4.55;;
32236;SDS011;18726;44.732;10.550;2022-07-23T16:43:31;8.20;;;4.32;;
32236;SDS011;18726;44.732;10.550;2022-07-23T16:46:35;10.57;;;5.28;;
32236;SDS011;18726;44.732;10.550;2022-07-23T16:49:39;7.03;;;4.78;;
32236;SDS011;18726;44.732;10.550;2022-07-23T16:52:43;7.45;;;4.90;;
32236;SDS011;18726;44.732;10.550;2022-07-23T16:55:47;9.48;;;4.93;;
32236;SDS011;18726;44.732;10.550;2022-07-23T16:58:51;15.50;;;4.82;;
32236;SDS011;18726;44.732;10.550;2022-07-23T17:01:54;6.68;;;4.63;;
32236;SDS011;18726;44.732;10.550;2022-07-23T17:04:58;7.05;;;4.60;;
32236;SDS011;18726;44.732;10.550;2022-07-23T17:08:02;8.95;;;5.22;;
32236;SDS011;18726;44.732;10.550;2022-07-23T17:11:06;5.93;;;4.63;;
32236;SDS011;18726;44.732;10.550;2022-07-23T17:14:10;8.65;;;4.70;;
32236;SDS011;18726;44.732;10.550;2022-07-23T17:17:14;6.60;;;5.13;;
32236;SDS011;18726;44.732;10.550;2022-07-23T17:20:17;6.43;;;4.80;;
32236;SDS011;18726;44.732;10.550;2022-07-23T17:23:22;7.72;;;5.18;;
32236;SDS011;18726;44.732;10.550;2022-07-23T17:26:26;8.52;;;5.18;;
32236;SDS011;18726;44.732;10.550;2022-07-23T17:29:30;9.70;;;5.65;;
32236;SDS011;18726;44.732;10.550;2022-07-23T17:32:33;10.60;;;5.50;;
32236;SDS011;18726;44.732;10.550;2022-07-23T17:35:37;10.30;;;5.75;;
32236;SDS011;18726;44.732;10.550;2022-07-23T17:38:43;12.05;;;6.47;;
32236;SDS011;18726;44.732;10.550;2022-07-23T17:41:47;11.60;;;5.93;;
32236;SDS011;18726;44.732;10.550;2022-07-23T17:44:51;14.55;;;6.60;;
32236;SDS011;18726;44.732;10.550;2022-07-23T17:47:55;10.23;;;6.55;;
32236;SDS011;18726;44.732;10.550;2022-07-23T17:50:59;10.25;;;7.57;;
32236;SDS011;18726;44.732;10.550;2022-07-23T17:54:05;12.93;;;6.75;;
32236;SDS011;18726;44.732;10.550;2022-07-23T17:57:09;11.88;;;7.38;;
32236;SDS011;18726;44.732;10.550;2022-07-23T18:00:14;11.30;;;6.53;;
32236;SDS011;18726;44.732;10.550;2022-07-23T18:03:19;9.43;;;7.13;;
32236;SDS011;18726;44.732;10.550;2022-07-23T18:06:24;9.23;;;7.45;;
32236;SDS011;18726;44.732;10.550;2022-07-23T18:09:27;9.45;;;7.07;;
32236;SDS011;18726;44.732;10.550;2022-07-23T18:12:31;8.50;;;7.07;;
32236;SDS011;18726;44.732;10.550;2022-07-23T18:15:36;10.90;;;7.85;;
32236;SDS011;18726;44.732;10.550;2022-07-23T18:18:40;9.55;;;7.03;;
32236;SDS011;18726;44.732;10.550;2022-07-23T18:21:44;9.35;;;6.45;;
32236;SDS011;18726;44.732;10.550;2022-07-23T18:24:48;7.80;;;6.15;;
32236;SDS011;18726;44.732;10.550;2022-07-23T18:27:52;9.88;;;6.13;;
32236;SDS011;18726;44.732;10.550;2022-07-23T18:30:56;6.70;;;5.53;;
32236;SDS011;18726;44.732;10.550;2022-07-23T18:34:00;11.05;;;6.07;;
32236;SDS011;18726;44.732;10.550;2022-07-23T18:37:04;8.68;;;6.88;;